createdAt,value
2023-03-13T00:00:29.034Z,21.18
2023-03-13T00:04:29.089Z,21.18
2023-03-13T00:08:29.194Z,21.17
2023-03-13T00:12:29.251Z,21.17
2023-03-13T00:16:29.399Z,21.16
2023-03-13T00:20:29.363Z,21.16
2023-03-13T00:24:29.438Z,21.16
2023-03-13T00:28:31.377Z,21.16
2023-03-13T00:32:29.503Z,21.16
2023-03-13T00:36:29.429Z,21.15
2023-03-13T00:40:29.401Z,21.15
2023-03-13T00:44:29.443Z,21.14
2023-03-13T00:48:29.309Z,21.14
2023-03-13T00:52:29.275Z,21.13
2023-03-13T00:56:29.237Z,21.13
2023-03-13T01:00:29.208Z,21.13
2023-03-13T01:04:29.183Z,21.12
2023-03-13T01:08:29.132Z,21.12
2023-03-13T01:12:29.097Z,21.13
2023-03-13T01:16:29.075Z,21.13
2023-03-13T01:20:29.030Z,21.11
2023-03-13T01:24:29.002Z,21.12
2023-03-13T01:28:28.953Z,21.11
2023-03-13T01:32:29.069Z,21.12
2023-03-13T01:36:28.922Z,21.10
2023-03-13T01:40:28.878Z,21.10
2023-03-13T01:44:29.039Z,21.09
2023-03-13T01:48:29.158Z,21.09
2023-03-13T01:52:29.310Z,21.09
2023-03-13T01:56:29.431Z,21.09
2023-03-13T02:00:29.563Z,21.07
2023-03-13T02:04:29.701Z,21.07
2023-03-13T02:08:29.830Z,21.06
2023-03-13T02:12:29.960Z,21.07
2023-03-13T02:16:30.115Z,21.06
2023-03-13T02:20:30.193Z,21.05
2023-03-13T02:24:30.341Z,21.05
2023-03-13T02:28:30.453Z,21.04
2023-03-13T02:32:30.733Z,21.04
2023-03-13T02:36:30.793Z,21.04
2023-03-13T02:40:30.963Z,21.03
2023-03-13T02:44:31.123Z,21.03
2023-03-13T02:48:31.287Z,21.02
2023-03-13T02:52:31.466Z,21.01
2023-03-13T02:56:31.654Z,21.01
2023-03-13T03:00:31.806Z,21.01
2023-03-13T03:04:31.927Z,21.01
2023-03-13T03:08:32.108Z,21.00
2023-03-13T03:12:32.285Z,21.01
2023-03-13T03:16:32.442Z,21.00
2023-03-13T03:20:32.598Z,20.99
2023-03-13T03:24:32.753Z,20.99
2023-03-13T03:28:32.909Z,21.00
2023-03-13T03:32:33.113Z,21.00
2023-03-13T03:36:33.296Z,20.99
2023-03-13T03:40:33.498Z,20.98
2023-03-13T03:44:33.616Z,20.97
2023-03-13T03:48:33.800Z,20.97
2023-03-13T03:52:33.980Z,20.97
2023-03-13T03:56:34.157Z,20.97
2023-03-13T04:00:34.368Z,20.97
2023-03-13T04:04:34.561Z,20.96
2023-03-13T04:08:34.763Z,20.96
2023-03-13T04:12:34.934Z,20.97
2023-03-13T04:16:35.232Z,20.97
2023-03-13T04:20:35.303Z,20.98
2023-03-13T04:24:35.465Z,20.97
2023-03-13T04:28:35.634Z,20.97
2023-03-13T04:32:35.859Z,20.97
2023-03-13T04:36:35.976Z,20.96
2023-03-13T04:40:36.119Z,20.96
2023-03-13T04:44:36.412Z,20.96
2023-03-13T04:48:36.476Z,20.96
2023-03-13T04:52:36.640Z,20.96
2023-03-13T04:56:43.597Z,20.96
2023-03-13T05:00:37.736Z,20.97
2023-03-13T05:04:36.766Z,20.96
2023-03-13T05:08:36.739Z,20.97
2023-03-13T05:12:36.907Z,20.97
2023-03-13T05:16:37.078Z,20.97
2023-03-13T05:20:37.251Z,20.97
2023-03-13T05:24:38.687Z,20.96
2023-03-13T05:28:37.578Z,20.96
2023-03-13T05:32:37.857Z,20.96
2023-03-13T05:36:37.961Z,20.97
2023-03-13T05:40:38.151Z,20.96
2023-03-13T05:44:38.273Z,20.96
2023-03-13T05:48:38.484Z,20.97
2023-03-13T05:52:38.677Z,20.97
2023-03-13T05:56:38.812Z,20.97
2023-03-13T06:00:39.022Z,20.98
2023-03-13T06:04:39.434Z,20.99
2023-03-13T06:08:39.326Z,21.00
2023-03-13T06:12:39.499Z,21.01
2023-03-13T06:16:39.656Z,21.02
2023-03-13T06:20:42.282Z,21.04
2023-03-13T06:24:39.755Z,21.05
2023-03-13T06:28:39.719Z,21.06
2023-03-13T06:32:39.940Z,21.07
2023-03-13T06:36:39.989Z,21.08
2023-03-13T06:40:39.922Z,21.14
2023-03-13T06:44:39.580Z,21.21
2023-03-13T06:48:39.970Z,21.29
2023-03-13T06:52:43.728Z,21.38
2023-03-13T06:56:39.973Z,21.46
2023-03-13T07:00:39.512Z,21.32
2023-03-13T07:04:39.422Z,21.42
2023-03-13T07:08:39.502Z,21.55
2023-03-13T07:12:39.465Z,21.73
2023-03-13T07:16:39.507Z,21.89
2023-03-13T07:20:39.306Z,22.00
2023-03-13T07:24:39.396Z,22.10
2023-03-13T07:28:39.487Z,22.17
2023-03-13T07:32:39.534Z,22.26
2023-03-13T07:36:39.537Z,22.34
2023-03-13T07:40:39.389Z,22.38
2023-03-13T07:44:39.341Z,22.46
2023-03-13T07:48:39.472Z,22.52
2023-03-13T07:52:39.497Z,22.59
2023-03-13T07:56:39.223Z,22.57
2023-03-13T08:00:39.499Z,22.59
2023-03-13T08:04:39.210Z,22.63
2023-03-13T08:08:39.495Z,22.64
2023-03-13T08:12:39.067Z,22.70
2023-03-13T08:16:39.542Z,22.72
2023-03-13T08:20:39.004Z,22.72
2023-03-13T08:24:38.958Z,22.74
2023-03-13T08:28:39.007Z,22.76
2023-03-13T08:32:39.161Z,22.79
2023-03-13T08:36:39.115Z,22.82
2023-03-13T08:40:39.480Z,22.85
2023-03-13T08:44:39.510Z,22.80
2023-03-13T08:48:39.310Z,22.65
2023-03-13T08:52:39.422Z,22.74
2023-03-13T08:56:39.505Z,22.92
2023-03-13T09:00:39.469Z,23.12
2023-03-13T09:04:40.036Z,23.29
2023-03-13T09:08:39.620Z,23.38
2023-03-13T09:12:39.590Z,23.48
2023-03-13T09:16:39.589Z,23.57
2023-03-13T09:20:39.527Z,23.62
2023-03-13T09:24:39.518Z,23.71
2023-03-13T09:28:39.545Z,23.81
2023-03-13T09:32:39.442Z,23.88
2023-03-13T09:36:39.532Z,23.92
2023-03-13T09:40:39.368Z,23.93
2023-03-13T09:44:39.529Z,23.90
2023-03-13T09:48:39.605Z,23.91
2023-03-13T09:52:39.544Z,23.90
2023-03-13T09:56:40.033Z,23.83
2023-03-13T10:00:39.524Z,23.77
2023-03-13T10:04:41.621Z,23.74
2023-03-13T10:08:39.545Z,23.71
2023-03-13T10:12:39.042Z,23.68
2023-03-13T10:16:39.080Z,23.66
2023-03-13T10:20:39.027Z,23.66
2023-03-13T10:24:39.057Z,23.65
2023-03-13T10:28:38.900Z,23.64
2023-03-13T10:32:38.925Z,23.62
2023-03-13T10:36:39.092Z,23.63
2023-03-13T10:40:39.034Z,23.63
2023-03-13T10:44:39.049Z,23.67
2023-03-13T10:48:39.064Z,23.05
2023-03-13T10:52:38.973Z,23.10
2023-03-13T10:56:38.935Z,23.36
2023-03-13T11:00:39.043Z,23.64
2023-03-13T11:04:38.839Z,23.82
2023-03-13T11:08:38.891Z,24.00
2023-03-13T11:12:38.837Z,24.17
2023-03-13T11:16:39.156Z,24.30
2023-03-13T11:20:38.717Z,24.39
2023-03-13T11:24:39.064Z,24.44
2023-03-13T11:28:38.642Z,24.46
2023-03-13T11:32:39.105Z,24.49
2023-03-13T11:36:39.067Z,24.52
2023-03-13T11:40:38.581Z,24.51
2023-03-13T11:44:38.532Z,24.35
2023-03-13T11:48:38.479Z,24.32
2023-03-13T11:52:38.427Z,24.34
2023-03-13T11:56:38.550Z,24.28
2023-03-13T12:00:38.407Z,24.20
2023-03-13T12:04:38.367Z,24.06
2023-03-13T12:08:38.313Z,24.18
2023-03-13T12:12:38.285Z,24.41
2023-03-13T12:16:38.628Z,24.66
2023-03-13T12:20:38.211Z,24.90
2023-03-13T12:24:38.148Z,25.13
2023-03-13T12:28:38.701Z,25.41
2023-03-13T12:32:38.072Z,25.44
2023-03-13T12:36:38.086Z,25.02
2023-03-13T12:40:37.997Z,24.92
2023-03-13T12:44:38.231Z,25.00
2023-03-13T12:48:38.411Z,25.10
2023-03-13T12:52:38.546Z,25.11
2023-03-13T12:56:39.103Z,25.11
2023-03-13T13:00:40.175Z,25.15
2023-03-13T13:04:39.054Z,25.17
2023-03-13T13:08:39.122Z,25.21
2023-03-13T13:12:39.598Z,25.36
2023-03-13T13:16:39.281Z,25.52
2023-03-13T13:20:39.315Z,25.48
2023-03-13T13:24:39.744Z,25.50
2023-03-13T13:28:39.347Z,25.54
2023-03-13T13:32:39.636Z,25.68
2023-03-13T13:36:39.491Z,26.13
2023-03-13T13:40:39.584Z,26.50
2023-03-13T13:44:39.561Z,26.58
2023-03-13T13:48:39.571Z,26.68
2023-03-13T13:52:39.668Z,27.07
2023-03-13T13:56:39.693Z,29.25
2023-03-13T14:00:39.764Z,30.10
2023-03-13T14:04:39.884Z,30.52
2023-03-13T14:08:40.091Z,29.48
2023-03-13T14:12:40.150Z,29.74
2023-03-13T14:16:40.355Z,28.92
2023-03-13T14:20:40.357Z,28.78
2023-03-13T14:24:40.233Z,27.86
2023-03-13T14:28:40.184Z,28.47
2023-03-13T14:32:40.205Z,28.52
2023-03-13T14:36:40.115Z,28.77
2023-03-13T14:40:40.085Z,27.96
2023-03-13T14:44:40.055Z,27.02
2023-03-13T14:48:40.018Z,26.31
2023-03-13T14:52:40.023Z,25.97
2023-03-13T14:56:39.933Z,25.77
2023-03-13T15:00:39.935Z,25.61
2023-03-13T15:04:39.941Z,25.54
2023-03-13T15:08:40.145Z,25.49
2023-03-13T15:12:40.161Z,25.44
2023-03-13T15:16:39.800Z,25.40
2023-03-13T15:20:39.700Z,25.36
2023-03-13T15:24:39.737Z,25.28
2023-03-13T15:28:39.698Z,25.22
2023-03-13T15:32:39.681Z,25.16
2023-03-13T15:36:39.566Z,25.08
2023-03-13T15:40:39.520Z,25.02
2023-03-13T15:44:39.695Z,24.96
2023-03-13T15:48:39.877Z,24.89
2023-03-13T15:52:40.078Z,24.82
2023-03-13T15:56:40.057Z,24.76
2023-03-13T16:00:40.023Z,24.70
2023-03-13T16:04:40.029Z,24.64
2023-03-13T16:08:39.956Z,24.59
2023-03-13T16:12:39.941Z,24.55
2023-03-13T16:16:39.913Z,24.49
2023-03-13T16:20:39.848Z,24.45
2023-03-13T16:24:39.842Z,24.50
2023-03-13T16:28:39.770Z,24.61
2023-03-13T16:32:39.802Z,24.68
2023-03-13T16:36:39.688Z,24.69
2023-03-13T16:40:39.711Z,24.68
2023-03-13T16:44:39.679Z,24.58
2023-03-13T16:48:39.634Z,24.44
2023-03-13T16:52:39.588Z,24.34
2023-03-13T16:56:39.577Z,24.27
2023-03-13T17:00:39.701Z,24.19
2023-03-13T17:04:41.331Z,24.13
2023-03-13T17:08:39.441Z,24.07
2023-03-13T17:12:39.435Z,23.99
2023-03-13T17:16:39.386Z,23.92
2023-03-13T17:20:39.357Z,23.86
2023-03-13T17:24:39.333Z,23.81
2023-03-13T17:28:39.277Z,23.77
2023-03-13T17:32:39.275Z,23.72
2023-03-13T17:36:39.201Z,23.68
2023-03-13T17:40:39.208Z,23.63
2023-03-13T17:44:39.146Z,23.61
2023-03-13T17:48:39.142Z,23.57
2023-03-13T17:52:39.091Z,23.53
2023-03-13T17:56:39.021Z,23.50
2023-03-13T18:00:38.989Z,23.47
2023-03-13T18:04:38.963Z,23.45
2023-03-13T18:08:38.916Z,23.41
2023-03-13T18:12:38.930Z,23.39
2023-03-13T18:16:38.895Z,23.35
2023-03-13T18:20:39.245Z,23.34
2023-03-13T18:24:38.810Z,23.31
2023-03-13T18:28:38.781Z,23.29
2023-03-13T18:32:38.772Z,23.27
2023-03-13T18:36:38.717Z,23.23
2023-03-13T18:40:38.643Z,23.22
2023-03-13T18:44:38.661Z,23.20
2023-03-13T18:48:38.586Z,23.19
2023-03-13T18:52:38.756Z,23.17
2023-03-13T18:56:38.746Z,23.15
2023-03-13T19:00:38.862Z,23.13
2023-03-13T19:04:38.659Z,23.10
2023-03-13T19:08:38.739Z,23.09
2023-03-13T19:12:38.584Z,23.07
2023-03-13T19:16:38.583Z,23.05
2023-03-13T19:20:38.543Z,23.04
2023-03-13T19:24:38.556Z,23.03
2023-03-13T19:28:38.427Z,23.02
2023-03-13T19:32:38.538Z,23.00
2023-03-13T19:36:38.705Z,22.99
2023-03-13T19:40:38.839Z,22.98
2023-03-13T19:44:38.874Z,22.97
2023-03-13T19:48:38.893Z,22.95
2023-03-13T19:52:38.855Z,22.93
2023-03-13T19:56:38.900Z,22.93
2023-03-13T20:00:38.945Z,22.90
2023-03-13T20:04:38.908Z,22.90
2023-03-13T20:08:38.890Z,22.89
2023-03-13T20:12:38.904Z,22.86
2023-03-13T20:16:38.894Z,22.86
2023-03-13T20:20:38.877Z,22.84
2023-03-13T20:24:38.854Z,22.83
2023-03-13T20:28:38.805Z,22.82
2023-03-13T20:32:46.225Z,22.80
2023-03-13T20:36:39.804Z,22.79
2023-03-13T20:40:38.738Z,22.77
2023-03-13T20:44:38.714Z,22.78
2023-03-13T20:48:38.667Z,22.77
2023-03-13T20:52:38.645Z,22.75
2023-03-13T20:56:38.609Z,22.74
2023-03-13T21:00:38.567Z,22.73
2023-03-13T21:04:38.624Z,22.71
2023-03-13T21:08:39.003Z,22.71
2023-03-13T21:12:38.654Z,22.72
2023-03-13T21:16:38.718Z,22.70
2023-03-13T21:20:38.718Z,22.69
2023-03-13T21:24:38.777Z,22.66
2023-03-13T21:28:38.784Z,22.66
2023-03-13T21:32:38.892Z,22.66
2023-03-13T21:36:38.874Z,22.65
2023-03-13T21:40:38.951Z,22.62
2023-03-13T21:44:38.978Z,22.62
2023-03-13T21:48:39.072Z,22.60
2023-03-13T21:52:40.859Z,22.58
2023-03-13T21:56:39.179Z,22.58
2023-03-13T22:00:39.252Z,22.57
2023-03-13T22:04:39.305Z,22.58
2023-03-13T22:08:39.376Z,22.56
2023-03-13T22:12:39.436Z,22.55
2023-03-13T22:16:39.518Z,22.54
2023-03-13T22:20:39.687Z,22.53
2023-03-13T22:24:39.661Z,22.53
2023-03-13T22:28:39.698Z,22.52
2023-03-13T22:32:39.820Z,22.51
2023-03-13T22:36:39.842Z,22.51
2023-03-13T22:40:39.928Z,22.50
2023-03-13T22:44:40.003Z,22.49
2023-03-13T22:48:40.047Z,22.47
2023-03-13T22:52:40.178Z,22.47
2023-03-13T22:56:40.244Z,22.46
2023-03-13T23:00:40.364Z,22.45
2023-03-13T23:04:40.488Z,22.45
2023-03-13T23:08:42.834Z,22.45
2023-03-13T23:12:40.546Z,22.44
2023-03-13T23:16:40.507Z,22.43
2023-03-13T23:20:40.473Z,22.42
2023-03-13T23:24:40.464Z,22.42
2023-03-13T23:28:40.384Z,22.41
2023-03-13T23:32:40.396Z,22.40
2023-03-13T23:36:40.338Z,22.40
2023-03-13T23:40:40.314Z,22.39
2023-03-13T23:44:40.253Z,22.38
2023-03-13T23:48:40.217Z,22.36
2023-03-13T23:52:40.188Z,22.35
2023-03-13T23:56:40.153Z,22.36
